KMRN/MRN METAR and TAF weather

Enter ICAO airport designator
Station Type Date Time Source
KMRN METAR 2020/09/30 15:15 UTC NOAA

KMRN 301515Z AUTO 27006KT 10SM CLR 18/07 A3006 RMK AO2 T01760069


Station Type Date Time Source
KMRN Decoded METAR 2020/09/30 15:15 UTC NOAA

Morganton, Morganton-Lenoir Airport, NC, United States (KMRN) 35-49-17N 081-36-39W
Sep 30, 2020 - 11:15 AM EDT / 2020.09.30 1515 UTC
Wind: from the W (270 degrees) at 7 MPH (6 KT):0
Visibility: 10 mile(s):0
Sky conditions: clear
Temperature: 63.7 F (17.6 C)
Dew Point: 44.4 F (6.9 C)
Relative Humidity: 49%
Pressure (altimeter): 30.06 in. Hg (1017 hPa)
ob: KMRN 301515Z AUTO 27006KT 10SM CLR 18/07 A3006 RMK AO2 T01760069
cycle: 15

Station Type Date Time Source
KMRN TAF UTC NOAA

Error!

Example: see airport list